sensor_id;sensor_type;location;lat;lon;timestamp;pressure;altitude;pressure_sealevel;temperature;humidity
20630;BME280;17386;43.846;25.950;2022-12-31T00:00:59;102344.13;;;6.40;100.00
20630;BME280;17386;43.846;25.950;2022-12-31T00:03:24;102344.13;;;6.41;100.00
20630;BME280;17386;43.846;25.950;2022-12-31T00:05:50;102353.84;;;6.47;100.00
20630;BME280;17386;43.846;25.950;2022-12-31T00:08:15;102365.31;;;6.50;100.00
20630;BME280;17386;43.846;25.950;2022-12-31T00:10:41;102355.63;;;6.51;100.00
20630;BME280;17386;43.846;25.950;2022-12-31T00:13:10;102357.44;;;6.58;100.00
20630;BME280;17386;43.846;25.950;2022-12-31T00:15:38;102350.44;;;6.62;100.00
20630;BME280;17386;43.846;25.950;2022-12-31T00:18:04;102367.16;;;6.65;100.00
20630;BME280;17386;43.846;25.950;2022-12-31T00:20:29;102368.97;;;6.66;100.00
20630;BME280;17386;43.846;25.950;2022-12-31T00:22:55;102369.84;;;6.68;100.00
20630;BME280;17386;43.846;25.950;2022-12-31T00:25:20;102343.34;;;6.56;100.00
20630;BME280;17386;43.846;25.950;2022-12-31T00:27:46;102373.31;;;6.64;100.00
20630;BME280;17386;43.846;25.950;2022-12-31T00:30:12;102374.16;;;6.55;100.00
20630;BME280;17386;43.846;25.950;2022-12-31T00:32:37;102368.88;;;6.58;100.00
20630;BME280;17386;43.846;25.950;2022-12-31T00:35:03;102373.28;;;6.58;100.00
20630;BME280;17386;43.846;25.950;2022-12-31T00:37:29;102368.00;;;6.58;100.00
20630;BME280;17386;43.846;25.950;2022-12-31T00:39:54;102368.88;;;6.54;100.00
20630;BME280;17386;43.846;25.950;2022-12-31T00:42:19;102371.47;;;6.48;100.00
20630;BME280;17386;43.846;25.950;2022-12-31T00:44:45;102374.97;;;6.47;100.00
20630;BME280;17386;43.846;25.950;2022-12-31T00:47:10;102368.78;;;6.40;100.00
20630;BME280;17386;43.846;25.950;2022-12-31T00:49:36;102386.31;;;6.38;100.00
20630;BME280;17386;43.846;25.950;2022-12-31T00:52:01;102381.91;;;6.36;100.00
20630;BME280;17386;43.846;25.950;2022-12-31T00:54:26;102388.94;;;6.34;100.00
20630;BME280;17386;43.846;25.950;2022-12-31T00:56:52;102397.72;;;6.31;100.00
20630;BME280;17386;43.846;25.950;2022-12-31T00:59:17;102389.72;;;6.22;100.00
20630;BME280;17386;43.846;25.950;2022-12-31T01:01:42;102396.75;;;6.20;100.00
20630;BME280;17386;43.846;25.950;2022-12-31T01:04:17;102394.13;;;6.21;100.00
20630;BME280;17386;43.846;25.950;2022-12-31T01:06:43;102393.19;;;6.15;100.00
20630;BME280;17386;43.846;25.950;2022-12-31T01:09:10;102394.06;;;6.12;100.00
20630;BME280;17386;43.846;25.950;2022-12-31T01:11:36;102406.31;;;6.07;100.00
20630;BME280;17386;43.846;25.950;2022-12-31T01:14:07;102404.53;;;6.05;100.00
20630;BME280;17386;43.846;25.950;2022-12-31T01:16:46;102408.00;;;6.02;100.00
20630;BME280;17386;43.846;25.950;2022-12-31T01:19:15;102408.00;;;5.99;100.00
20630;BME280;17386;43.846;25.950;2022-12-31T01:21:41;102405.13;;;5.81;100.00
20630;BME280;17386;43.846;25.950;2022-12-31T01:24:09;102406.00;;;5.78;100.00
20630;BME280;17386;43.846;25.950;2022-12-31T01:26:35;102408.50;;;5.69;100.00
20630;BME280;17386;43.846;25.950;2022-12-31T01:29:02;102402.28;;;5.61;100.00
20630;BME280;17386;43.846;25.950;2022-12-31T01:31:27;102400.56;;;5.63;100.00
20630;BME280;17386;43.846;25.950;2022-12-31T01:33:52;102401.38;;;5.60;100.00
20630;BME280;17386;43.846;25.950;2022-12-31T01:36:23;102391.69;;;5.58;100.00
20630;BME280;17386;43.846;25.950;2022-12-31T01:38:49;102401.31;;;5.56;100.00
20630;BME280;17386;43.846;25.950;2022-12-31T01:41:17;102401.38;;;5.57;100.00
20630;BME280;17386;43.846;25.950;2022-12-31T01:43:56;102400.50;;;5.57;100.00
20630;BME280;17386;43.846;25.950;2022-12-31T01:46:36;102404.84;;;5.55;100.00
20630;BME280;17386;43.846;25.950;2022-12-31T01:51:38;102405.53;;;5.40;100.00
20630;BME280;17386;43.846;25.950;2022-12-31T01:54:07;102408.97;;;5.33;100.00
20630;BME280;17386;43.846;25.950;2022-12-31T01:56:35;102419.41;;;5.24;100.00
20630;BME280;17386;43.846;25.950;2022-12-31T01:59:05;102407.13;;;5.27;100.00
20630;BME280;17386;43.846;25.950;2022-12-31T02:01:34;102408.00;;;5.28;100.00
20630;BME280;17386;43.846;25.950;2022-12-31T02:04:04;102410.66;;;5.28;100.00
20630;BME280;17386;43.846;25.950;2022-12-31T02:06:40;102408.91;;;5.28;100.00
20630;BME280;17386;43.846;25.950;2022-12-31T02:09:07;102401.88;;;5.27;100.00
20630;BME280;17386;43.846;25.950;2022-12-31T02:11:34;102404.50;;;5.27;100.00
20630;BME280;17386;43.846;25.950;2022-12-31T02:14:07;102398.31;;;5.24;100.00
20630;BME280;17386;43.846;25.950;2022-12-31T02:22:35;102404.31;;;5.12;100.00
20630;BME280;17386;43.846;25.950;2022-12-31T02:30:39;102412.97;;;5.02;100.00
20630;BME280;17386;43.846;25.950;2022-12-31T02:34:16;102406.75;;;4.98;100.00
20630;BME280;17386;43.846;25.950;2022-12-31T02:36:22;102409.38;;;4.97;100.00
20630;BME280;17386;43.846;25.950;2022-12-31T02:38:50;102392.53;;;4.87;100.00
20630;BME280;17386;43.846;25.950;2022-12-31T02:41:19;102404.09;;;4.97;100.00
20630;BME280;17386;43.846;25.950;2022-12-31T03:00:41;102425.41;;;4.54;100.00
20630;BME280;17386;43.846;25.950;2022-12-31T03:03:27;102413.13;;;4.53;100.00
20630;BME280;17386;43.846;25.950;2022-12-31T03:05:54;102432.66;;;4.68;100.00
20630;BME280;17386;43.846;25.950;2022-12-31T03:08:25;102422.22;;;4.75;100.00
20630;BME280;17386;43.846;25.950;2022-12-31T03:10:50;102430.13;;;4.74;100.00
20630;BME280;17386;43.846;25.950;2022-12-31T03:13:16;102443.13;;;4.64;100.00
20630;BME280;17386;43.846;25.950;2022-12-31T03:15:41;102440.50;;;4.66;100.00
20630;BME280;17386;43.846;25.950;2022-12-31T03:23:27;102435.41;;;4.75;100.00
20630;BME280;17386;43.846;25.950;2022-12-31T03:25:54;102429.28;;;4.79;100.00
20630;BME280;17386;43.846;25.950;2022-12-31T03:28:24;102429.34;;;4.81;100.00
20630;BME280;17386;43.846;25.950;2022-12-31T03:30:53;102429.34;;;4.81;100.00
20630;BME280;17386;43.846;25.950;2022-12-31T03:33:19;102429.38;;;4.85;100.00
20630;BME280;17386;43.846;25.950;2022-12-31T03:35:46;102430.22;;;4.81;100.00
20630;BME280;17386;43.846;25.950;2022-12-31T03:38:12;102434.50;;;4.75;100.00
20630;BME280;17386;43.846;25.950;2022-12-31T03:40:40;102426.66;;;4.79;100.00
20630;BME280;17386;43.846;25.950;2022-12-31T03:43:06;102431.22;;;4.88;100.00
20630;BME280;17386;43.846;25.950;2022-12-31T03:45:31;102429.38;;;4.84;100.00
20630;BME280;17386;43.846;25.950;2022-12-31T03:47:59;102437.25;;;4.81;100.00
20630;BME280;17386;43.846;25.950;2022-12-31T03:50:24;102428.59;;;4.89;100.00
20630;BME280;17386;43.846;25.950;2022-12-31T03:52:49;102433.97;;;4.97;100.00
20630;BME280;17386;43.846;25.950;2022-12-31T03:55:15;102435.72;;;4.98;100.00
20630;BME280;17386;43.846;25.950;2022-12-31T03:57:40;102441.84;;;4.97;100.00
20630;BME280;17386;43.846;25.950;2022-12-31T04:00:09;102444.59;;;5.05;100.00
20630;BME280;17386;43.846;25.950;2022-12-31T04:02:36;102435.84;;;5.06;100.00
20630;BME280;17386;43.846;25.950;2022-12-31T04:05:02;102437.59;;;5.05;100.00
20630;BME280;17386;43.846;25.950;2022-12-31T04:07:27;102449.88;;;5.05;100.00
20630;BME280;17386;43.846;25.950;2022-12-31T04:09:53;102441.16;;;5.09;100.00
20630;BME280;17386;43.846;25.950;2022-12-31T04:12:18;102445.66;;;5.16;100.00
20630;BME280;17386;43.846;25.950;2022-12-31T04:14:44;102438.66;;;5.21;100.00
20630;BME280;17386;43.846;25.950;2022-12-31T04:17:09;102439.59;;;5.23;100.00
20630;BME280;17386;43.846;25.950;2022-12-31T04:19:34;102436.09;;;5.22;100.00
20630;BME280;17386;43.846;25.950;2022-12-31T04:22:00;102429.88;;;5.19;100.00
20630;BME280;17386;43.846;25.950;2022-12-31T04:24:25;102439.50;;;5.17;100.00
20630;BME280;17386;43.846;25.950;2022-12-31T04:26:51;102439.59;;;5.21;100.00
20630;BME280;17386;43.846;25.950;2022-12-31T04:29:16;102440.50;;;5.25;100.00
20630;BME280;17386;43.846;25.950;2022-12-31T04:31:42;102464.22;;;5.27;100.00
20630;BME280;17386;43.846;25.950;2022-12-31T04:34:07;102455.50;;;5.31;100.00
20630;BME280;17386;43.846;25.950;2022-12-31T04:36:33;102459.94;;;5.35;100.00
20630;BME280;17386;43.846;25.950;2022-12-31T04:38:59;102463.50;;;5.35;100.00
20630;BME280;17386;43.846;25.950;2022-12-31T04:41:24;102473.06;;;5.29;100.00
20630;BME280;17386;43.846;25.950;2022-12-31T04:43:58;102461.75;;;5.39;100.00
20630;BME280;17386;43.846;25.950;2022-12-31T04:46:29;102468.00;;;5.44;100.00
20630;BME280;17386;43.846;25.950;2022-12-31T04:48:55;102462.63;;;5.36;100.00
20630;BME280;17386;43.846;25.950;2022-12-31T04:51:22;102462.66;;;5.39;100.00
20630;BME280;17386;43.846;25.950;2022-12-31T04:53:48;102457.34;;;5.36;100.00
20630;BME280;17386;43.846;25.950;2022-12-31T04:56:14;102447.59;;;5.31;100.00
20630;BME280;17386;43.846;25.950;2022-12-31T04:58:40;102459.03;;;5.33;100.00
20630;BME280;17386;43.846;25.950;2022-12-31T05:01:05;102471.22;;;5.21;100.00
20630;BME280;17386;43.846;25.950;2022-12-31T05:03:31;102470.34;;;5.22;100.00
20630;BME280;17386;43.846;25.950;2022-12-31T05:06:02;102470.44;;;5.30;100.00
20630;BME280;17386;43.846;25.950;2022-12-31T05:08:29;102469.56;;;5.31;100.00
20630;BME280;17386;43.846;25.950;2022-12-31T05:10:55;102477.50;;;5.33;100.00
20630;BME280;17386;43.846;25.950;2022-12-31T05:13:22;102477.41;;;5.28;100.00
20630;BME280;17386;43.846;25.950;2022-12-31T05:15:48;102482.66;;;5.27;100.00
20630;BME280;17386;43.846;25.950;2022-12-31T05:18:13;102486.19;;;5.26;100.00
20630;BME280;17386;43.846;25.950;2022-12-31T05:20:39;102490.53;;;5.22;100.00
20630;BME280;17386;43.846;25.950;2022-12-31T05:23:04;102492.06;;;5.08;100.00
20630;BME280;17386;43.846;25.950;2022-12-31T05:25:31;102495.63;;;5.10;100.00
20630;BME280;17386;43.846;25.950;2022-12-31T05:27:57;102500.78;;;5.02;100.00
20630;BME280;17386;43.846;25.950;2022-12-31T05:30:22;102507.72;;;4.99;100.00
20630;BME280;17386;43.846;25.950;2022-12-31T05:32:48;102517.25;;;4.90;100.00
20630;BME280;17386;43.846;25.950;2022-12-31T05:35:13;102522.44;;;4.86;100.00
20630;BME280;17386;43.846;25.950;2022-12-31T05:37:39;102521.63;;;4.88;100.00
20630;BME280;17386;43.846;25.950;2022-12-31T05:40:05;102522.56;;;4.92;100.00
20630;BME280;17386;43.846;25.950;2022-12-31T05:42:31;102519.78;;;4.83;100.00
20630;BME280;17386;43.846;25.950;2022-12-31T05:44:56;102518.06;;;4.86;100.00
20630;BME280;17386;43.846;25.950;2022-12-31T05:47:22;102517.16;;;4.83;100.00
20630;BME280;17386;43.846;25.950;2022-12-31T05:49:48;102528.41;;;4.74;100.00
20630;BME280;17386;43.846;25.950;2022-12-31T05:52:13;102524.91;;;4.75;100.00
20630;BME280;17386;43.846;25.950;2022-12-31T05:54:39;102528.47;;;4.79;100.00
20630;BME280;17386;43.846;25.950;2022-12-31T05:57:04;102535.50;;;4.78;100.00
20630;BME280;17386;43.846;25.950;2022-12-31T05:59:30;102531.06;;;4.76;100.00
20630;BME280;17386;43.846;25.950;2022-12-31T06:01:56;102545.97;;;4.74;100.00
20630;BME280;17386;43.846;25.950;2022-12-31T06:04:21;102547.50;;;4.61;100.00
20630;BME280;17386;43.846;25.950;2022-12-31T06:06:47;102563.19;;;4.56;100.00
20630;BME280;17386;43.846;25.950;2022-12-31T06:09:14;102565.91;;;4.61;100.00
20630;BME280;17386;43.846;25.950;2022-12-31T06:11:40;102565.91;;;4.61;100.00
20630;BME280;17386;43.846;25.950;2022-12-31T06:14:05;102562.28;;;4.54;100.00
20630;BME280;17386;43.846;25.950;2022-12-31T06:16:31;102570.13;;;4.53;100.00
20630;BME280;17386;43.846;25.950;2022-12-31T06:18:56;102576.25;;;4.52;100.00
20630;BME280;17386;43.846;25.950;2022-12-31T06:21:22;102563.91;;;4.46;100.00
20630;BME280;17386;43.846;25.950;2022-12-31T06:23:47;102571.06;;;4.55;100.00
20630;BME280;17386;43.846;25.950;2022-12-31T06:26:13;102565.88;;;4.59;100.00
20630;BME280;17386;43.846;25.950;2022-12-31T06:28:39;102580.00;;;4.63;100.00
20630;BME280;17386;43.846;25.950;2022-12-31T06:31:08;102578.97;;;4.55;100.00
20630;BME280;17386;43.846;25.950;2022-12-31T06:33:35;102584.25;;;4.56;100.00
20630;BME280;17386;43.846;25.950;2022-12-31T06:36:02;102589.63;;;4.61;100.00
20630;BME280;17386;43.846;25.950;2022-12-31T06:38:29;102603.44;;;4.51;100.00
20630;BME280;17386;43.846;25.950;2022-12-31T06:40:55;102608.66;;;4.46;100.00
20630;BME280;17386;43.846;25.950;2022-12-31T06:43:21;102596.09;;;4.33;100.00
20630;BME280;17386;43.846;25.950;2022-12-31T06:45:46;102601.09;;;4.19;100.00
20630;BME280;17386;43.846;25.950;2022-12-31T06:48:12;102599.66;;;4.36;100.00
20630;BME280;17386;43.846;25.950;2022-12-31T06:50:38;102593.50;;;4.36;100.00
20630;BME280;17386;43.846;25.950;2022-12-31T06:53:04;102611.44;;;4.55;100.00
20630;BME280;17386;43.846;25.950;2022-12-31T06:55:30;102609.84;;;4.65;100.00
20630;BME280;17386;43.846;25.950;2022-12-31T06:57:56;102618.88;;;4.78;100.00
20630;BME280;17386;43.846;25.950;2022-12-31T07:00:21;102615.56;;;4.88;100.00
20630;BME280;17386;43.846;25.950;2022-12-31T07:05:54;102633.44;;;5.07;100.00
20630;BME280;17386;43.846;25.950;2022-12-31T07:21:52;102655.66;;;5.21;100.00
20630;BME280;17386;43.846;25.950;2022-12-31T07:24:18;102657.59;;;5.33;100.00
20630;BME280;17386;43.846;25.950;2022-12-31T07:29:45;102664.13;;;5.57;100.00
20630;BME280;17386;43.846;25.950;2022-12-31T07:36:02;102670.63;;;5.80;100.00
20630;BME280;17386;43.846;25.950;2022-12-31T07:39:04;102668.22;;;5.92;100.00
20630;BME280;17386;43.846;25.950;2022-12-31T07:46:58;102678.91;;;6.03;100.00
20630;BME280;17386;43.846;25.950;2022-12-31T07:49:25;102684.16;;;6.00;100.00
20630;BME280;17386;43.846;25.950;2022-12-31T07:51:51;102677.22;;;6.10;100.00
20630;BME280;17386;43.846;25.950;2022-12-31T07:54:17;102675.56;;;6.16;100.00
20630;BME280;17386;43.846;25.950;2022-12-31T07:56:43;102673.91;;;6.24;100.00
20630;BME280;17386;43.846;25.950;2022-12-31T08:00:04;102678.38;;;6.27;100.00
20630;BME280;17386;43.846;25.950;2022-12-31T08:13:01;102684.78;;;6.49;100.00
20630;BME280;17386;43.846;25.950;2022-12-31T08:15:28;102677.03;;;6.61;100.00
20630;BME280;17386;43.846;25.950;2022-12-31T08:17:54;102684.22;;;6.76;100.00
20630;BME280;17386;43.846;25.950;2022-12-31T08:20:20;102678.06;;;6.75;100.00
20630;BME280;17386;43.846;25.950;2022-12-31T08:31:00;102695.16;;;7.09;100.00
20630;BME280;17386;43.846;25.950;2022-12-31T08:42:04;102686.91;;;7.79;100.00
20630;BME280;17386;43.846;25.950;2022-12-31T08:49:29;102688.31;;;8.73;98.20
20630;BME280;17386;43.846;25.950;2022-12-31T08:51:55;102687.53;;;9.35;95.36
20630;BME280;17386;43.846;25.950;2022-12-31T08:54:21;102676.88;;;9.84;91.90
20630;BME280;17386;43.846;25.950;2022-12-31T09:07:38;102660.88;;;10.24;87.68
20630;BME280;17386;43.846;25.950;2022-12-31T09:10:18;102662.63;;;10.17;88.31
20630;BME280;17386;43.846;25.950;2022-12-31T09:15:32;102659.88;;;10.52;86.93
20630;BME280;17386;43.846;25.950;2022-12-31T09:18:01;102653.75;;;10.38;86.35
20630;BME280;17386;43.846;25.950;2022-12-31T09:20:32;102652.00;;;10.26;87.53
20630;BME280;17386;43.846;25.950;2022-12-31T09:22:59;102655.56;;;10.24;87.83
20630;BME280;17386;43.846;25.950;2022-12-31T09:25:25;102652.78;;;10.48;87.14
20630;BME280;17386;43.846;25.950;2022-12-31T09:30:52;102649.34;;;10.26;87.73
20630;BME280;17386;43.846;25.950;2022-12-31T09:33:46;102645.66;;;10.56;86.79
20630;BME280;17386;43.846;25.950;2022-12-31T09:36:21;102635.16;;;10.32;87.11
20630;BME280;17386;43.846;25.950;2022-12-31T09:48:03;102628.03;;;10.35;88.00
20630;BME280;17386;43.846;25.950;2022-12-31T09:55:56;102621.09;;;11.43;82.90
20630;BME280;17386;43.846;25.950;2022-12-31T10:01:20;102614.94;;;12.23;79.12
20630;BME280;17386;43.846;25.950;2022-12-31T10:04:18;102616.19;;;13.19;76.71
20630;BME280;17386;43.846;25.950;2022-12-31T10:07:23;102607.72;;;13.47;74.43
20630;BME280;17386;43.846;25.950;2022-12-31T10:10:17;102611.13;;;13.55;72.85
20630;BME280;17386;43.846;25.950;2022-12-31T10:12:57;102600.56;;;13.49;73.31
20630;BME280;17386;43.846;25.950;2022-12-31T10:18:19;102597.41;;;14.18;72.13
20630;BME280;17386;43.846;25.950;2022-12-31T10:23:59;102602.28;;;15.51;66.00
20630;BME280;17386;43.846;25.950;2022-12-31T10:26:36;102596.13;;;15.81;66.30
20630;BME280;17386;43.846;25.950;2022-12-31T10:37:47;102579.97;;;16.44;61.18
20630;BME280;17386;43.846;25.950;2022-12-31T10:40:24;102581.63;;;16.20;62.21
20630;BME280;17386;43.846;25.950;2022-12-31T10:45:32;102580.28;;;16.03;63.17
20630;BME280;17386;43.846;25.950;2022-12-31T10:57:45;102586.97;;;16.49;62.42
20630;BME280;17386;43.846;25.950;2022-12-31T11:00:18;102576.81;;;16.87;61.96
20630;BME280;17386;43.846;25.950;2022-12-31T11:05:56;102554.41;;;17.41;60.66
20630;BME280;17386;43.846;25.950;2022-12-31T11:14:23;102547.00;;;15.81;65.65
20630;BME280;17386;43.846;25.950;2022-12-31T11:17:27;102553.81;;;15.93;66.32
20630;BME280;17386;43.846;25.950;2022-12-31T11:37:16;102546.06;;;14.81;71.81
20630;BME280;17386;43.846;25.950;2022-12-31T11:42:59;102532.97;;;14.30;74.05
20630;BME280;17386;43.846;25.950;2022-12-31T11:48:25;102533.94;;;13.86;76.66
20630;BME280;17386;43.846;25.950;2022-12-31T11:56:33;102539.59;;;13.71;78.65
20630;BME280;17386;43.846;25.950;2022-12-31T11:59:07;102535.78;;;13.84;78.45
20630;BME280;17386;43.846;25.950;2022-12-31T12:01:56;102530.59;;;13.76;78.80
20630;BME280;17386;43.846;25.950;2022-12-31T12:04:24;102523.53;;;13.74;79.13
20630;BME280;17386;43.846;25.950;2022-12-31T12:06:50;102525.16;;;13.81;79.07
20630;BME280;17386;43.846;25.950;2022-12-31T12:09:24;102528.00;;;13.72;79.58
20630;BME280;17386;43.846;25.950;2022-12-31T12:12:02;102528.78;;;13.77;79.52
20630;BME280;17386;43.846;25.950;2022-12-31T12:14:37;102537.69;;;13.77;79.51
20630;BME280;17386;43.846;25.950;2022-12-31T12:17:09;102530.63;;;13.75;79.63
20630;BME280;17386;43.846;25.950;2022-12-31T12:19:46;102525.22;;;13.78;79.70
20630;BME280;17386;43.846;25.950;2022-12-31T12:22:23;102531.31;;;13.84;79.92
20630;BME280;17386;43.846;25.950;2022-12-31T12:25:06;102533.00;;;13.88;79.84
20630;BME280;17386;43.846;25.950;2022-12-31T12:27:33;102530.31;;;13.90;80.13
20630;BME280;17386;43.846;25.950;2022-12-31T12:32:57;102543.00;;;13.79;81.09
20630;BME280;17386;43.846;25.950;2022-12-31T12:35:32;102545.78;;;13.74;81.53
20630;BME280;17386;43.846;25.950;2022-12-31T12:38:06;102544.81;;;13.77;81.51
20630;BME280;17386;43.846;25.950;2022-12-31T12:40:33;102551.09;;;13.76;82.13
20630;BME280;17386;43.846;25.950;2022-12-31T12:43:00;102539.69;;;13.67;82.54
20630;BME280;17386;43.846;25.950;2022-12-31T12:45:28;102557.34;;;13.75;83.02
20630;BME280;17386;43.846;25.950;2022-12-31T12:48:06;102561.91;;;13.68;83.53
20630;BME280;17386;43.846;25.950;2022-12-31T12:50:41;102562.00;;;13.63;83.87
20630;BME280;17386;43.846;25.950;2022-12-31T12:53:20;102554.78;;;13.68;84.22
20630;BME280;17386;43.846;25.950;2022-12-31T13:01:52;102562.13;;;13.59;85.51
20630;BME280;17386;43.846;25.950;2022-12-31T13:09:56;102575.66;;;13.48;86.20
20630;BME280;17386;43.846;25.950;2022-12-31T13:12:59;102574.69;;;13.51;86.29
20630;BME280;17386;43.846;25.950;2022-12-31T13:15:40;102580.03;;;13.51;86.32
20630;BME280;17386;43.846;25.950;2022-12-31T13:28:47;102575.94;;;13.33;89.20
20630;BME280;17386;43.846;25.950;2022-12-31T13:31:18;102575.94;;;13.33;89.21
20630;BME280;17386;43.846;25.950;2022-12-31T13:33:54;102574.19;;;13.32;89.34
20630;BME280;17386;43.846;25.950;2022-12-31T13:36:23;102576.97;;;13.24;89.83
20630;BME280;17386;43.846;25.950;2022-12-31T13:38:51;102585.88;;;13.23;90.07
20630;BME280;17386;43.846;25.950;2022-12-31T13:41:28;102592.91;;;13.29;89.97
20630;BME280;17386;43.846;25.950;2022-12-31T13:44:13;102585.94;;;13.20;89.95
20630;BME280;17386;43.846;25.950;2022-12-31T13:46:55;102589.75;;;13.04;90.86
20630;BME280;17386;43.846;25.950;2022-12-31T13:49:24;102594.06;;;13.12;90.77
20630;BME280;17386;43.846;25.950;2022-12-31T13:54:40;102590.50;;;13.12;90.65
20630;BME280;17386;43.846;25.950;2022-12-31T13:57:44;102590.56;;;13.07;91.20
20630;BME280;17386;43.846;25.950;2022-12-31T14:00:29;102595.06;;;13.05;91.25
20630;BME280;17386;43.846;25.950;2022-12-31T14:05:34;102582.75;;;12.95;91.95
20630;BME280;17386;43.846;25.950;2022-12-31T14:08:04;102588.06;;;12.97;92.22
20630;BME280;17386;43.846;25.950;2022-12-31T14:13:40;102594.34;;;12.94;92.32
20630;BME280;17386;43.846;25.950;2022-12-31T14:22:01;102588.41;;;12.77;92.93
20630;BME280;17386;43.846;25.950;2022-12-31T14:24:48;102586.69;;;12.73;93.24
20630;BME280;17386;43.846;25.950;2022-12-31T14:27:38;102593.03;;;12.64;94.12
20630;BME280;17386;43.846;25.950;2022-12-31T14:30:17;102577.97;;;12.60;94.42
20630;BME280;17386;43.846;25.950;2022-12-31T14:41:18;102573.97;;;12.30;96.00
20630;BME280;17386;43.846;25.950;2022-12-31T14:46:53;102578.59;;;12.14;97.38
20630;BME280;17386;43.846;25.950;2022-12-31T14:54:44;102566.53;;;11.89;98.53
20630;BME280;17386;43.846;25.950;2022-12-31T14:57:21;102574.59;;;11.81;98.95
20630;BME280;17386;43.846;25.950;2022-12-31T14:59:55;102583.50;;;11.75;99.90
20630;BME280;17386;43.846;25.950;2022-12-31T15:02:24;102586.19;;;11.72;100.00
20630;BME280;17386;43.846;25.950;2022-12-31T15:04:49;102594.25;;;11.65;100.00
20630;BME280;17386;43.846;25.950;2022-12-31T15:07:29;102601.41;;;11.61;100.00
20630;BME280;17386;43.846;25.950;2022-12-31T15:10:21;102603.28;;;11.53;100.00
20630;BME280;17386;43.846;25.950;2022-12-31T15:21:08;102605.34;;;11.20;100.00
20630;BME280;17386;43.846;25.950;2022-12-31T15:23:41;102619.56;;;11.16;100.00
20630;BME280;17386;43.846;25.950;2022-12-31T15:26:21;102623.13;;;11.11;100.00
20630;BME280;17386;43.846;25.950;2022-12-31T15:29:05;102627.63;;;11.07;100.00
20630;BME280;17386;43.846;25.950;2022-12-31T15:31:33;102632.13;;;10.99;100.00
20630;BME280;17386;43.846;25.950;2022-12-31T15:34:23;102630.38;;;10.93;100.00
20630;BME280;17386;43.846;25.950;2022-12-31T15:36:57;102626.84;;;10.91;100.00
20630;BME280;17386;43.846;25.950;2022-12-31T15:41:54;102634.91;;;10.79;100.00
20630;BME280;17386;43.846;25.950;2022-12-31T15:44:47;102629.59;;;10.75;100.00
20630;BME280;17386;43.846;25.950;2022-12-31T15:50:03;102629.66;;;10.67;100.00
20630;BME280;17386;43.846;25.950;2022-12-31T15:52:35;102634.09;;;10.66;100.00
20630;BME280;17386;43.846;25.950;2022-12-31T15:55:04;102633.22;;;10.63;100.00
20630;BME280;17386;43.846;25.950;2022-12-31T15:57:39;102614.72;;;10.51;100.00
20630;BME280;17386;43.846;25.950;2022-12-31T16:00:19;102625.31;;;10.57;100.00
20630;BME280;17386;43.846;25.950;2022-12-31T16:02:46;102625.31;;;10.57;100.00
20630;BME280;17386;43.846;25.950;2022-12-31T16:05:24;102625.31;;;10.54;100.00
20630;BME280;17386;43.846;25.950;2022-12-31T16:07:55;102622.66;;;10.52;100.00
20630;BME280;17386;43.846;25.950;2022-12-31T16:10:27;102631.50;;;10.53;100.00
20630;BME280;17386;43.846;25.950;2022-12-31T16:12:54;102621.78;;;10.52;100.00
20630;BME280;17386;43.846;25.950;2022-12-31T16:15:23;102618.22;;;10.54;100.00
20630;BME280;17386;43.846;25.950;2022-12-31T16:18:18;102617.34;;;10.57;100.00
20630;BME280;17386;43.846;25.950;2022-12-31T16:20:45;102623.50;;;10.56;100.00
20630;BME280;17386;43.846;25.950;2022-12-31T16:23:26;102619.97;;;10.60;100.00
20630;BME280;17386;43.846;25.950;2022-12-31T16:25:54;102629.69;;;10.64;100.00
20630;BME280;17386;43.846;25.950;2022-12-31T16:28:27;102635.00;;;10.62;100.00
20630;BME280;17386;43.846;25.950;2022-12-31T16:31:05;102633.25;;;10.58;100.00
20630;BME280;17386;43.846;25.950;2022-12-31T16:33:31;102638.59;;;10.54;100.00
20630;BME280;17386;43.846;25.950;2022-12-31T16:35:59;102635.97;;;10.46;100.00
20630;BME280;17386;43.846;25.950;2022-12-31T16:38:35;102642.16;;;10.48;100.00
20630;BME280;17386;43.846;25.950;2022-12-31T16:43:35;102639.56;;;10.39;100.00
20630;BME280;17386;43.846;25.950;2022-12-31T16:46:30;102640.47;;;10.33;100.00
20630;BME280;17386;43.846;25.950;2022-12-31T16:49:04;102638.72;;;10.28;100.00
20630;BME280;17386;43.846;25.950;2022-12-31T16:51:32;102642.25;;;10.21;100.00
20630;BME280;17386;43.846;25.950;2022-12-31T16:54:01;102652.88;;;10.19;100.00
20630;BME280;17386;43.846;25.950;2022-12-31T16:56:38;102652.00;;;10.17;100.00
20630;BME280;17386;43.846;25.950;2022-12-31T16:59:53;102655.56;;;10.11;100.00
20630;BME280;17386;43.846;25.950;2022-12-31T17:01:52;102656.44;;;10.13;100.00
20630;BME280;17386;43.846;25.950;2022-12-31T17:04:20;102656.47;;;10.09;100.00
20630;BME280;17386;43.846;25.950;2022-12-31T17:06:47;102667.09;;;10.10;100.00
20630;BME280;17386;43.846;25.950;2022-12-31T17:09:14;102677.69;;;10.07;100.00
20630;BME280;17386;43.846;25.950;2022-12-31T17:12:15;102670.63;;;10.09;100.00
20630;BME280;17386;43.846;25.950;2022-12-31T17:14:48;102677.69;;;10.07;100.00
20630;BME280;17386;43.846;25.950;2022-12-31T17:17:24;102675.06;;;10.04;100.00
20630;BME280;17386;43.846;25.950;2022-12-31T17:19:56;102674.19;;;10.02;100.00
20630;BME280;17386;43.846;25.950;2022-12-31T17:22:28;102670.63;;;10.00;100.00
20630;BME280;17386;43.846;25.950;2022-12-31T17:25:04;102674.19;;;10.02;100.00